createdAt,value
2022-12-25T00:01:24.701Z,100.00
2022-12-25T00:03:52.800Z,100.00
2022-12-25T00:06:19.628Z,100.00
2022-12-25T00:08:46.451Z,100.00
2022-12-25T00:11:16.076Z,100.00
2022-12-25T00:13:43.165Z,100.00
2022-12-25T00:16:13.372Z,100.00
2022-12-25T00:18:39.880Z,100.00
2022-12-25T00:21:07.299Z,100.00
2022-12-25T00:23:34.975Z,100.00
2022-12-25T00:26:06.853Z,100.00
2022-12-25T00:28:33.460Z,100.00
2022-12-25T00:31:00.007Z,100.00
2022-12-25T00:33:26.491Z,100.00
2022-12-25T00:36:00.210Z,100.00
2022-12-25T00:38:27.859Z,100.00
2022-12-25T00:40:54.956Z,100.00
2022-12-25T00:43:21.743Z,100.00
2022-12-25T00:45:59.542Z,100.00
2022-12-25T00:48:27.398Z,100.00
2022-12-25T00:50:59.031Z,100.00
2022-12-25T00:53:26.140Z,100.00
2022-12-25T00:55:58.381Z,100.00
2022-12-25T00:58:27.368Z,100.00
2022-12-25T01:00:54.262Z,100.00
2022-12-25T01:03:20.811Z,100.00
2022-12-25T01:05:58.816Z,100.00
2022-12-25T01:08:26.399Z,100.00
2022-12-25T01:10:58.291Z,100.00
2022-12-25T01:13:25.145Z,100.00
2022-12-25T01:15:54.807Z,100.00
2022-12-25T01:18:23.261Z,100.00
2022-12-25T01:20:49.920Z,100.00
2022-12-25T01:23:17.006Z,100.00
2022-12-25T01:25:43.579Z,100.00
2022-12-25T01:28:10.114Z,100.00
2022-12-25T01:30:36.555Z,100.00
2022-12-25T01:33:03.233Z,100.00
2022-12-25T01:35:29.809Z,100.00
2022-12-25T01:37:56.276Z,100.00
2022-12-25T01:40:22.871Z,100.00
2022-12-25T01:42:49.415Z,100.00
2022-12-25T01:45:44.808Z,100.00
2022-12-25T01:48:16.577Z,100.00
2022-12-25T01:50:45.883Z,100.00
2022-12-25T01:53:12.735Z,100.00
2022-12-25T01:55:41.610Z,100.00
2022-12-25T01:58:08.548Z,100.00
2022-12-25T02:00:35.725Z,100.00
2022-12-25T02:03:02.978Z,100.00
2022-12-25T02:05:32.715Z,100.00
2022-12-25T02:08:04.213Z,100.00
2022-12-25T02:10:30.758Z,100.00
2022-12-25T02:12:57.594Z,100.00
2022-12-25T02:15:34.564Z,100.00
2022-12-25T02:18:27.010Z,100.00
2022-12-25T02:21:09.567Z,100.00
2022-12-25T02:24:17.415Z,100.00
2022-12-25T02:27:02.907Z,100.00
2022-12-25T02:29:55.389Z,100.00
2022-12-25T02:32:39.869Z,100.00
2022-12-25T02:35:18.295Z,100.00
2022-12-25T02:38:01.870Z,100.00
2022-12-25T02:40:39.932Z,100.00
2022-12-25T02:43:30.834Z,100.00
2022-12-25T02:46:18.836Z,100.00
2022-12-25T02:49:09.431Z,100.00
2022-12-25T02:51:57.557Z,100.00
2022-12-25T02:54:49.352Z,100.00
2022-12-25T02:57:37.323Z,100.00
2022-12-25T03:00:24.392Z,100.00
2022-12-25T03:03:11.482Z,100.00
2022-12-25T03:05:59.807Z,100.00
2022-12-25T03:08:37.066Z,100.00
2022-12-25T03:11:26.143Z,100.00
2022-12-25T03:14:17.747Z,100.00
2022-12-25T03:16:52.917Z,100.00
2022-12-25T03:19:52.800Z,100.00
2022-12-25T03:22:47.426Z,100.00
2022-12-25T03:25:33.767Z,100.00
2022-12-25T03:28:00.652Z,100.00
2022-12-25T03:31:03.058Z,100.00
2022-12-25T03:33:48.416Z,100.00
2022-12-25T03:36:34.545Z,100.00
2022-12-25T03:39:19.351Z,100.00
2022-12-25T03:42:19.596Z,100.00
2022-12-25T03:45:35.420Z,100.00
2022-12-25T03:48:27.632Z,100.00
2022-12-25T03:51:21.949Z,100.00
2022-12-25T03:54:14.351Z,100.00
2022-12-25T03:57:01.410Z,100.00
2022-12-25T03:59:46.898Z,100.00
2022-12-25T04:02:31.806Z,100.00
2022-12-25T04:05:17.015Z,100.00
2022-12-25T04:08:02.035Z,100.00
2022-12-25T04:10:47.066Z,100.00
2022-12-25T04:13:33.134Z,100.00
2022-12-25T04:16:17.979Z,100.00
2022-12-25T04:19:03.242Z,100.00
2022-12-25T04:21:48.617Z,100.00
2022-12-25T04:24:33.675Z,100.00
2022-12-25T04:27:18.516Z,100.00
2022-12-25T04:30:03.347Z,100.00
2022-12-25T04:32:48.746Z,100.00
2022-12-25T04:35:34.185Z,100.00
2022-12-25T04:38:00.773Z,100.00
2022-12-25T04:40:27.396Z,100.00
2022-12-25T04:42:53.861Z,100.00
2022-12-25T04:45:20.484Z,100.00
2022-12-25T04:47:47.063Z,100.00
2022-12-25T04:50:13.663Z,100.00
2022-12-25T04:52:41.206Z,100.00
2022-12-25T04:55:09.293Z,100.00
2022-12-25T04:57:35.954Z,100.00
2022-12-25T05:00:02.511Z,100.00
2022-12-25T05:02:29.153Z,100.00
2022-12-25T05:04:55.799Z,100.00
2022-12-25T05:07:22.404Z,100.00
2022-12-25T05:09:48.947Z,100.00
2022-12-25T05:12:15.555Z,100.00
2022-12-25T05:14:42.205Z,100.00
2022-12-25T05:17:08.660Z,100.00
2022-12-25T05:19:35.266Z,100.00
2022-12-25T05:22:01.763Z,100.00
2022-12-25T05:24:28.730Z,100.00
2022-12-25T05:26:55.498Z,100.00
2022-12-25T05:29:22.030Z,100.00
2022-12-25T05:31:48.572Z,100.00
2022-12-25T05:34:15.150Z,100.00
2022-12-25T05:36:41.717Z,100.00
2022-12-25T05:39:08.218Z,100.00
2022-12-25T05:41:35.116Z,100.00
2022-12-25T05:44:02.029Z,100.00
2022-12-25T05:46:28.659Z,100.00
2022-12-25T05:48:55.632Z,100.00
2022-12-25T05:51:22.181Z,100.00
2022-12-25T05:53:48.827Z,100.00
2022-12-25T05:56:15.351Z,100.00
2022-12-25T05:58:42.208Z,100.00
2022-12-25T06:01:22.861Z,100.00
2022-12-25T06:03:49.383Z,100.00
2022-12-25T06:06:15.945Z,100.00
2022-12-25T06:08:43.150Z,100.00
2022-12-25T06:11:10.736Z,100.00
2022-12-25T06:13:37.253Z,100.00
2022-12-25T06:16:05.774Z,100.00
2022-12-25T06:18:35.836Z,100.00
2022-12-25T06:21:06.462Z,100.00
2022-12-25T06:23:32.990Z,100.00
2022-12-25T06:26:00.330Z,100.00
2022-12-25T06:28:26.868Z,100.00
2022-12-25T06:30:53.324Z,100.00
2022-12-25T06:33:19.770Z,100.00
2022-12-25T06:35:46.217Z,100.00
2022-12-25T06:38:12.762Z,100.00
2022-12-25T06:40:39.293Z,100.00
2022-12-25T06:43:05.816Z,100.00
2022-12-25T06:45:35.645Z,100.00
2022-12-25T06:48:02.249Z,100.00
2022-12-25T06:50:28.753Z,100.00
2022-12-25T06:52:56.747Z,100.00
2022-12-25T06:55:23.211Z,100.00
2022-12-25T06:57:49.701Z,100.00
2022-12-25T07:00:16.315Z,100.00
2022-12-25T07:02:46.591Z,100.00
2022-12-25T07:05:13.062Z,100.00
2022-12-25T07:07:39.576Z,100.00
2022-12-25T07:10:06.788Z,100.00
2022-12-25T07:12:33.345Z,100.00
2022-12-25T07:14:59.791Z,100.00
2022-12-25T07:17:26.409Z,100.00
2022-12-25T07:19:52.945Z,100.00
2022-12-25T07:22:19.481Z,100.00
2022-12-25T07:24:45.990Z,100.00
2022-12-25T07:27:12.516Z,100.00
2022-12-25T07:29:39.023Z,100.00
2022-12-25T07:32:06.086Z,100.00
2022-12-25T07:34:32.595Z,100.00
2022-12-25T07:36:59.100Z,100.00
2022-12-25T07:39:25.593Z,100.00
2022-12-25T07:41:52.092Z,100.00
2022-12-25T07:44:18.745Z,100.00
2022-12-25T07:46:45.842Z,100.00
2022-12-25T07:49:12.726Z,100.00
2022-12-25T07:51:39.584Z,100.00
2022-12-25T07:54:06.329Z,100.00
2022-12-25T07:56:32.947Z,100.00
2022-12-25T07:58:59.481Z,100.00
2022-12-25T08:01:27.325Z,100.00
2022-12-25T08:03:56.858Z,100.00
2022-12-25T08:06:26.729Z,100.00
2022-12-25T08:08:53.297Z,100.00
2022-12-25T08:11:19.866Z,100.00
2022-12-25T08:13:46.522Z,100.00
2022-12-25T08:16:13.212Z,100.00
2022-12-25T08:18:40.305Z,100.00
2022-12-25T08:21:13.090Z,100.00
2022-12-25T08:23:42.247Z,100.00
2022-12-25T08:26:12.857Z,100.00
2022-12-25T08:28:39.796Z,100.00
2022-12-25T08:31:16.309Z,100.00
2022-12-25T08:33:43.366Z,100.00
2022-12-25T08:36:11.946Z,100.00
2022-12-25T08:38:39.374Z,100.00
2022-12-25T08:41:06.763Z,100.00
2022-12-25T08:43:33.366Z,100.00
2022-12-25T08:45:59.923Z,100.00
2022-12-25T08:48:27.822Z,100.00
2022-12-25T08:50:54.737Z,100.00
2022-12-25T08:53:22.105Z,100.00
2022-12-25T08:55:48.589Z,100.00
2022-12-25T08:58:16.346Z,100.00
2022-12-25T09:00:42.991Z,100.00
2022-12-25T09:03:09.673Z,100.00
2022-12-25T09:05:37.192Z,100.00
2022-12-25T09:08:03.874Z,100.00
2022-12-25T09:10:30.672Z,100.00
2022-12-25T09:12:57.256Z,100.00
2022-12-25T09:15:23.875Z,100.00
2022-12-25T09:17:50.416Z,100.00
2022-12-25T09:20:16.935Z,100.00
2022-12-25T09:22:43.475Z,100.00
2022-12-25T09:25:10.314Z,100.00
2022-12-25T09:27:36.796Z,100.00
2022-12-25T09:30:04.869Z,100.00
2022-12-25T09:32:31.431Z,100.00
2022-12-25T09:34:57.919Z,100.00
2022-12-25T09:37:24.497Z,100.00
2022-12-25T09:39:51.045Z,100.00
2022-12-25T09:42:20.122Z,100.00
2022-12-25T09:44:55.109Z,100.00
2022-12-25T09:47:30.971Z,100.00
2022-12-25T09:50:22.791Z,100.00
2022-12-25T09:53:03.416Z,100.00
2022-12-25T09:55:33.532Z,100.00
2022-12-25T09:58:08.588Z,100.00
2022-12-25T10:00:40.850Z,100.00
2022-12-25T10:03:31.747Z,100.00
2022-12-25T10:06:18.578Z,100.00
2022-12-25T10:09:13.519Z,100.00
2022-12-25T10:12:01.493Z,100.00
2022-12-25T10:14:39.952Z,100.00
2022-12-25T10:17:21.162Z,100.00
2022-12-25T10:20:19.614Z,100.00
2022-12-25T10:22:59.333Z,99.37
2022-12-25T10:25:26.270Z,99.92
2022-12-25T10:27:58.315Z,98.76
2022-12-25T10:30:27.272Z,99.62
2022-12-25T10:32:57.026Z,98.39
2022-12-25T10:35:27.412Z,97.86
2022-12-25T10:38:10.127Z,96.61
2022-12-25T10:41:06.973Z,96.68
2022-12-25T10:43:45.519Z,96.60
2022-12-25T10:46:14.560Z,95.45
2022-12-25T10:48:44.847Z,95.19
2022-12-25T10:51:11.658Z,95.90
2022-12-25T10:53:41.393Z,95.05
2022-12-25T10:56:16.906Z,94.62
2022-12-25T10:58:44.098Z,93.22
2022-12-25T11:01:11.630Z,93.61
2022-12-25T11:03:41.138Z,93.63
2022-12-25T11:06:22.483Z,92.92
2022-12-25T11:09:00.822Z,92.33
2022-12-25T11:11:28.717Z,91.92
2022-12-25T11:13:58.679Z,91.98
2022-12-25T11:16:43.282Z,92.86
2022-12-25T11:19:28.476Z,91.92
2022-12-25T11:21:58.344Z,91.89
2022-12-25T11:24:28.158Z,91.49
2022-12-25T11:26:57.695Z,91.96
2022-12-25T11:29:41.882Z,91.28
2022-12-25T11:32:29.325Z,91.71
2022-12-25T11:34:56.965Z,91.12
2022-12-25T11:37:43.370Z,90.54
2022-12-25T11:40:19.104Z,91.28
2022-12-25T11:42:51.576Z,90.96
2022-12-25T11:45:27.639Z,90.16
2022-12-25T11:47:56.897Z,90.15
2022-12-25T11:50:36.168Z,89.53
2022-12-25T11:53:06.668Z,89.47
2022-12-25T11:55:57.093Z,88.44
2022-12-25T11:58:31.915Z,87.62
2022-12-25T12:01:02.456Z,85.38
2022-12-25T12:03:37.407Z,85.86
2022-12-25T12:06:19.056Z,84.61
2022-12-25T12:08:50.062Z,83.04
2022-12-25T12:11:28.690Z,82.06
2022-12-25T12:14:26.258Z,82.89
2022-12-25T12:16:52.991Z,82.06
2022-12-25T12:19:27.036Z,80.69
2022-12-25T12:21:57.077Z,80.81
2022-12-25T12:24:28.156Z,80.64
2022-12-25T12:27:04.440Z,80.66
2022-12-25T12:29:44.340Z,78.45
2022-12-25T12:32:36.575Z,79.57
2022-12-25T12:35:20.419Z,79.87
2022-12-25T12:37:52.483Z,79.48
2022-12-25T12:40:39.153Z,79.19
2022-12-25T12:43:22.188Z,77.87
2022-12-25T12:45:56.353Z,78.45
2022-12-25T12:48:27.492Z,77.60
2022-12-25T12:51:05.718Z,77.17
2022-12-25T12:53:33.428Z,76.77
2022-12-25T12:56:32.473Z,76.87
2022-12-25T12:58:58.996Z,76.77
2022-12-25T13:02:08.836Z,77.01
2022-12-25T13:04:50.346Z,75.23
2022-12-25T13:07:28.077Z,74.34
2022-12-25T13:10:11.966Z,72.96
2022-12-25T13:12:38.575Z,73.63
2022-12-25T13:15:13.171Z,73.82
2022-12-25T13:17:44.583Z,74.25
2022-12-25T13:20:24.941Z,74.34
2022-12-25T13:22:53.054Z,73.93
2022-12-25T13:25:23.734Z,74.05
2022-12-25T13:27:57.660Z,74.16
2022-12-25T13:30:25.471Z,74.75
2022-12-25T13:32:52.196Z,74.64
2022-12-25T13:35:21.171Z,75.24
2022-12-25T13:37:47.989Z,74.51
2022-12-25T13:40:26.939Z,75.47
2022-12-25T13:42:59.607Z,75.49
2022-12-25T13:45:28.706Z,75.54
2022-12-25T13:47:56.117Z,75.58
2022-12-25T13:50:34.229Z,74.67
2022-12-25T13:53:13.288Z,74.88
2022-12-25T13:55:41.692Z,75.72
2022-12-25T13:58:36.775Z,74.53
2022-12-25T14:01:03.681Z,74.82
2022-12-25T14:03:33.445Z,75.41
2022-12-25T14:06:07.814Z,75.04
2022-12-25T14:08:35.798Z,75.20
2022-12-25T14:11:05.770Z,75.85
2022-12-25T14:13:37.476Z,75.09
2022-12-25T14:16:04.729Z,75.94
2022-12-25T14:18:31.402Z,77.36
2022-12-25T14:21:02.394Z,77.04
2022-12-25T14:23:42.999Z,77.11
2022-12-25T14:26:17.332Z,77.56
2022-12-25T14:28:51.679Z,78.78
2022-12-25T14:31:18.909Z,79.94
2022-12-25T14:33:46.763Z,79.83
2022-12-25T14:36:14.768Z,79.17
2022-12-25T14:38:43.817Z,79.39
2022-12-25T14:41:36.943Z,80.62
2022-12-25T14:44:38.709Z,80.56
2022-12-25T14:47:11.410Z,81.51
2022-12-25T14:49:38.376Z,81.19
2022-12-25T14:52:15.392Z,81.70
2022-12-25T14:54:46.393Z,83.01
2022-12-25T14:57:47.193Z,83.88
2022-12-25T15:00:27.314Z,83.77
2022-12-25T15:02:56.977Z,83.83
2022-12-25T15:05:27.745Z,84.74
2022-12-25T15:08:00.679Z,86.27
2022-12-25T15:13:15.532Z,86.94
2022-12-25T15:15:50.116Z,87.82
2022-12-25T15:18:17.640Z,88.47
2022-12-25T15:20:44.215Z,88.47
2022-12-25T15:23:19.702Z,88.21
2022-12-25T15:25:47.492Z,88.51
2022-12-25T15:28:14.266Z,89.65
2022-12-25T15:30:41.095Z,89.83
2022-12-25T15:33:12.615Z,89.22
2022-12-25T15:35:39.168Z,88.45
2022-12-25T15:38:05.738Z,88.83
2022-12-25T15:40:32.358Z,88.81
2022-12-25T15:42:59.879Z,89.01
2022-12-25T15:45:30.332Z,88.98
2022-12-25T15:47:57.379Z,87.92
2022-12-25T15:50:24.511Z,87.47
2022-12-25T15:52:51.042Z,86.69
2022-12-25T15:55:17.715Z,86.47
2022-12-25T15:57:47.008Z,87.31
2022-12-25T16:00:18.808Z,87.19
2022-12-25T16:02:46.002Z,87.98
2022-12-25T16:05:12.965Z,88.31
2022-12-25T16:07:39.768Z,88.07
2022-12-25T16:10:11.212Z,88.46
2022-12-25T16:12:39.000Z,89.81
2022-12-25T16:15:06.399Z,91.89
2022-12-25T16:17:32.996Z,91.59
2022-12-25T16:19:59.734Z,92.38
2022-12-25T16:22:26.351Z,94.22
2022-12-25T16:24:54.493Z,94.19
2022-12-25T16:27:21.515Z,94.46
2022-12-25T16:29:48.325Z,95.26
2022-12-25T16:32:15.597Z,96.33
2022-12-25T16:34:44.917Z,95.82
2022-12-25T16:37:11.401Z,96.37
2022-12-25T16:39:37.862Z,97.33
2022-12-25T16:42:04.354Z,97.20
2022-12-25T16:44:30.976Z,96.10
2022-12-25T16:46:57.593Z,95.63
2022-12-25T16:49:24.082Z,95.67
2022-12-25T16:51:50.654Z,94.94
2022-12-25T16:54:17.107Z,94.01
2022-12-25T16:56:43.589Z,93.37
2022-12-25T16:59:10.216Z,92.76
2022-12-25T17:01:43.422Z,92.25
2022-12-25T17:04:10.222Z,91.36
2022-12-25T17:06:37.541Z,91.75
2022-12-25T17:09:04.386Z,91.93
2022-12-25T17:11:31.866Z,91.63
2022-12-25T17:14:01.996Z,91.85
2022-12-25T17:16:31.982Z,91.07
2022-12-25T17:19:01.444Z,92.57
2022-12-25T17:21:29.629Z,92.01
2022-12-25T17:24:02.449Z,91.91
2022-12-25T17:26:31.076Z,91.85
2022-12-25T17:28:58.278Z,91.57
2022-12-25T17:31:24.771Z,91.81
2022-12-25T17:33:51.507Z,92.58
2022-12-25T17:36:20.051Z,92.51
2022-12-25T17:38:47.639Z,92.73
2022-12-25T17:41:16.249Z,92.94
2022-12-25T17:43:45.384Z,93.62
2022-12-25T17:46:17.997Z,95.62
2022-12-25T17:48:45.110Z,94.92
2022-12-25T17:51:14.268Z,96.42
2022-12-25T17:53:43.421Z,97.42
2022-12-25T17:56:11.459Z,97.25
2022-12-25T17:58:38.484Z,97.66
2022-12-25T18:01:10.032Z,99.47
2022-12-25T18:03:37.005Z,97.83
2022-12-25T18:06:04.907Z,98.53
2022-12-25T18:08:38.608Z,98.03
2022-12-25T18:11:08.694Z,98.29
2022-12-25T18:13:35.460Z,99.91
2022-12-25T18:16:06.734Z,99.05
2022-12-25T18:18:34.272Z,100.00
2022-12-25T18:21:01.788Z,100.00
2022-12-25T18:23:29.045Z,100.00
2022-12-25T18:25:55.837Z,100.00
2022-12-25T18:28:23.187Z,100.00
2022-12-25T18:30:49.791Z,100.00
2022-12-25T18:33:16.318Z,100.00
2022-12-25T18:35:43.755Z,100.00
2022-12-25T18:38:11.447Z,100.00
2022-12-25T18:40:42.508Z,100.00
2022-12-25T18:43:09.261Z,100.00
2022-12-25T18:45:36.033Z,100.00
2022-12-25T18:48:03.322Z,100.00
2022-12-25T18:50:30.265Z,100.00
2022-12-25T18:52:56.732Z,100.00
2022-12-25T18:55:23.246Z,100.00
2022-12-25T18:57:49.921Z,100.00
2022-12-25T19:00:16.843Z,100.00
2022-12-25T19:02:43.572Z,100.00
2022-12-25T19:05:10.284Z,100.00
2022-12-25T19:07:37.146Z,100.00
2022-12-25T19:10:05.463Z,100.00
2022-12-25T19:12:32.025Z,100.00
2022-12-25T19:14:58.568Z,100.00
2022-12-25T19:17:31.370Z,100.00
2022-12-25T19:19:58.558Z,100.00
2022-12-25T19:22:25.089Z,100.00
2022-12-25T19:24:51.637Z,100.00
2022-12-25T19:27:18.215Z,100.00
2022-12-25T19:29:44.881Z,100.00
2022-12-25T19:32:11.670Z,100.00
2022-12-25T19:34:38.339Z,100.00
2022-12-25T19:37:05.139Z,100.00
2022-12-25T19:39:31.714Z,100.00
2022-12-25T19:41:58.247Z,100.00
2022-12-25T19:44:24.788Z,100.00
2022-12-25T19:46:51.353Z,100.00
2022-12-25T19:49:17.880Z,100.00
2022-12-25T19:51:46.170Z,100.00
2022-12-25T19:54:15.346Z,100.00
2022-12-25T19:56:42.283Z,100.00
2022-12-25T19:59:10.498Z,100.00
2022-12-25T20:01:38.743Z,100.00
2022-12-25T20:04:07.979Z,100.00
2022-12-25T20:06:36.092Z,100.00
2022-12-25T20:09:06.340Z,98.57
2022-12-25T20:11:34.969Z,97.07
2022-12-25T20:14:02.105Z,96.06
2022-12-25T20:16:28.953Z,95.77
2022-12-25T20:18:56.774Z,95.60
2022-12-25T20:21:23.957Z,95.89
2022-12-25T20:23:52.564Z,95.60
2022-12-25T20:26:21.985Z,95.16
2022-12-25T20:28:48.760Z,94.24
2022-12-25T20:31:24.413Z,94.68
2022-12-25T20:33:51.004Z,94.67
2022-12-25T20:36:18.877Z,94.16
2022-12-25T20:38:45.605Z,94.23
2022-12-25T20:41:31.171Z,93.98
2022-12-25T20:43:58.054Z,93.50
2022-12-25T20:46:25.884Z,93.81
2022-12-25T20:48:53.595Z,93.50
2022-12-25T20:51:22.850Z,92.72
2022-12-25T20:53:49.987Z,92.35
2022-12-25T20:56:18.975Z,91.99
2022-12-25T20:58:45.850Z,91.56
2022-12-25T21:01:15.735Z,91.22
2022-12-25T21:03:43.396Z,91.22
2022-12-25T21:06:10.798Z,92.19
2022-12-25T21:08:38.075Z,92.17
2022-12-25T21:11:06.265Z,92.22
2022-12-25T21:13:43.541Z,92.54
2022-12-25T21:16:13.450Z,92.33
2022-12-25T21:18:40.508Z,91.63
2022-12-25T21:21:07.925Z,91.23
2022-12-25T21:23:38.860Z,90.56
2022-12-25T21:26:20.525Z,90.00
2022-12-25T21:28:51.805Z,90.28
2022-12-25T21:31:19.346Z,90.51
2022-12-25T21:33:52.298Z,90.72
2022-12-25T21:36:23.735Z,91.19
2022-12-25T21:39:02.293Z,92.61
2022-12-25T21:41:30.621Z,93.22
2022-12-25T21:43:57.765Z,92.79
2022-12-25T21:46:25.499Z,93.20
2022-12-25T21:48:52.545Z,93.41
2022-12-25T21:51:43.966Z,94.41
2022-12-25T21:54:11.747Z,95.65
2022-12-25T21:56:44.529Z,95.54
2022-12-25T21:59:15.299Z,95.87
2022-12-25T22:01:42.708Z,96.12
2022-12-25T22:04:11.570Z,96.35
2022-12-25T22:06:57.086Z,96.65
2022-12-25T22:09:24.247Z,95.40
2022-12-25T22:12:09.590Z,95.00
2022-12-25T22:14:56.203Z,93.87
2022-12-25T22:17:43.580Z,92.47
2022-12-25T22:20:34.499Z,91.83
2022-12-25T22:23:01.222Z,90.23
2022-12-25T22:25:28.461Z,90.40
2022-12-25T22:27:55.259Z,89.74
2022-12-25T22:30:27.721Z,88.75
2022-12-25T22:32:54.932Z,88.41
2022-12-25T22:35:21.848Z,87.94
2022-12-25T22:37:49.582Z,87.62
2022-12-25T22:40:18.223Z,86.76
2022-12-25T22:42:44.841Z,86.18
2022-12-25T22:45:12.453Z,86.53
2022-12-25T22:47:39.784Z,86.22
2022-12-25T22:50:07.552Z,85.67
2022-12-25T22:52:34.183Z,86.32
2022-12-25T22:55:00.921Z,86.03
2022-12-25T22:57:27.690Z,85.99
2022-12-25T22:59:54.309Z,86.03
2022-12-25T23:02:21.285Z,86.06
2022-12-25T23:04:47.976Z,85.71
2022-12-25T23:07:15.534Z,84.90
2022-12-25T23:09:43.642Z,85.44
2022-12-25T23:12:29.800Z,85.99
2022-12-25T23:14:57.230Z,85.95
2022-12-25T23:17:59.260Z,85.83
2022-12-25T23:20:44.202Z,85.67
2022-12-25T23:23:35.185Z,86.24
2022-12-25T23:26:08.809Z,86.58
2022-12-25T23:28:55.931Z,86.83
2022-12-25T23:31:26.935Z,86.07
2022-12-25T23:33:53.601Z,85.50
2022-12-25T23:36:20.316Z,86.52
2022-12-25T23:38:46.906Z,86.83
2022-12-25T23:41:13.652Z,87.08
2022-12-25T23:43:40.124Z,87.32
2022-12-25T23:46:06.644Z,87.04
2022-12-25T23:48:33.186Z,86.31
2022-12-25T23:51:06.941Z,86.66
2022-12-25T23:53:34.196Z,87.75
2022-12-25T23:56:01.268Z,87.79
2022-12-25T23:58:28.844Z,88.83
